Time,TemperatureF,DewpointF,PressureIn,WindDirection,WindDirectionDegrees,WindSpeedMPH,WindSpeedGustMPH,Humidity,HourlyPrecipIn,Conditions,Clouds,dailyrainin,SoftwareType,DateUTC
2013-06-29 00:03:00,64.7,54.0,30.30,NW,311,6.0,-999.0,68,-99.99,,,0.00,weatherlink.com 1.10,2013-06-29 06:03:00,
2013-06-29 00:18:00,63.9,55.0,30.30,WSW,241,1.0,-999.0,74,-99.99,,,0.00,weatherlink.com 1.10,2013-06-29 06:18:00,
2013-06-29 00:33:00,63.3,56.0,30.30,West,269,4.0,-999.0,76,-99.99,,,0.00,weatherlink.com 1.10,2013-06-29 06:33:00,
2013-06-29 00:58:00,63.7,54.0,30.29,West,271,5.0,-999.0,71,-99.99,,,0.00,weatherlink.com 1.10,2013-06-29 06:58:00,
2013-06-29 01:18:00,64.0,53.0,30.29,NNW,336,4.0,-999.0,68,-99.99,,,0.00,weatherlink.com 1.10,2013-06-29 07:18:00,
2013-06-29 01:33:00,64.0,53.0,30.29,WNW,296,0.0,-999.0,68,-99.99,,,0.00,weatherlink.com 1.10,2013-06-29 07:33:00,
2013-06-29 01:48:00,63.6,54.0,30.28,SW,218,3.0,-999.0,70,-99.99,,,0.00,weatherlink.com 1.10,2013-06-29 07:48:00,
2013-06-29 02:03:00,61.9,53.0,30.29,WSW,237,5.0,-999.0,73,-99.99,,,0.00,weatherlink.com 1.10,2013-06-29 08:03:00,
2013-06-29 02:18:00,62.2,53.0,30.29,WSW,242,2.0,-999.0,71,-99.99,,,0.00,weatherlink.com 1.10,2013-06-29 08:18:00,
2013-06-29 02:33:00,62.3,53.0,30.28,West,269,3.0,-999.0,72,-99.99,,,0.00,weatherlink.com 1.10,2013-06-29 08:33:00,
2013-06-29 02:48:00,62.6,53.0,30.28,West,270,3.0,-999.0,70,-99.99,,,0.00,weatherlink.com 1.10,2013-06-29 08:48:00,
2013-06-29 03:03:00,62.7,53.0,30.28,West,274,1.0,-999.0,70,-99.99,,,0.00,weatherlink.com 1.10,2013-06-29 09:03:00,
2013-06-29 03:18:00,62.2,53.0,30.27,West,274,3.0,-999.0,71,-99.99,,,0.00,weatherlink.com 1.10,2013-06-29 09:18:00,
2013-06-29 03:33:00,61.3,53.0,30.27,West,271,2.0,-999.0,74,-99.99,,,0.00,weatherlink.com 1.10,2013-06-29 09:33:00,
2013-06-29 03:48:00,61.7,52.0,30.27,West,267,5.0,-999.0,71,-99.99,,,0.00,weatherlink.com 1.10,2013-06-29 09:48:00,
2013-06-29 04:03:00,62.1,52.0,30.27,West,270,4.0,-999.0,70,-99.99,,,0.00,weatherlink.com 1.10,2013-06-29 10:03:00,
2013-06-29 04:18:00,61.8,52.0,30.27,WSW,245,3.0,-999.0,71,-99.99,,,0.00,weatherlink.com 1.10,2013-06-29 10:18:00,
2013-06-29 04:33:00,61.5,51.0,30.27,West,261,4.0,-999.0,69,-99.99,,,0.00,weatherlink.com 1.10,2013-06-29 10:33:00,
2013-06-29 04:48:00,61.5,51.0,30.28,West,267,3.0,-999.0,69,-99.99,,,0.00,weatherlink.com 1.10,2013-06-29 10:48:00,
2013-06-29 05:03:00,61.4,51.0,30.28,WSW,250,4.0,-999.0,69,-99.99,,,0.00,weatherlink.com 1.10,2013-06-29 11:03:00,
2013-06-29 05:18:00,61.0,51.0,30.28,WSW,237,7.0,-999.0,70,-99.99,,,0.00,weatherlink.com 1.10,2013-06-29 11:18:00,
2013-06-29 05:33:00,61.0,51.0,30.28,WSW,248,5.0,-999.0,69,-99.99,,,0.00,weatherlink.com 1.10,2013-06-29 11:33:00,
2013-06-29 05:48:00,60.9,50.0,30.28,West,261,5.0,-999.0,68,-99.99,,,0.00,weatherlink.com 1.10,2013-06-29 11:48:00,
2013-06-29 06:03:00,60.8,52.0,30.28,SSW,192,6.0,-999.0,72,-99.99,,,0.00,weatherlink.com 1.10,2013-06-29 12:03:00,
2013-06-29 06:18:00,59.8,51.0,30.28,SW,234,5.0,-999.0,73,-99.99,,,0.00,weatherlink.com 1.10,2013-06-29 12:18:00,
2013-06-29 06:33:00,60.4,51.0,30.29,WSW,239,3.0,-999.0,72,-99.99,,,0.00,weatherlink.com 1.10,2013-06-29 12:33:00,
2013-06-29 06:48:00,61.2,52.0,30.28,WSW,239,0.0,-999.0,73,-99.99,,,0.00,weatherlink.com 1.10,2013-06-29 12:48:00,
2013-06-29 07:03:00,63.7,53.0,30.28,WSW,239,0.0,-999.0,69,-99.99,,,0.00,weatherlink.com 1.10,2013-06-29 13:03:00,
2013-06-29 07:18:00,67.1,54.0,30.29,SW,215,1.0,-999.0,63,-99.99,,,0.00,weatherlink.com 1.10,2013-06-29 13:18:00,
2013-06-29 07:33:00,67.8,55.0,30.29,SSW,196,1.0,-999.0,63,-99.99,,,0.00,weatherlink.com 1.10,2013-06-29 13:33:00,
2013-06-29 07:48:00,67.6,54.0,30.29,SSW,196,0.0,-999.0,61,-99.99,,,0.00,weatherlink.com 1.10,2013-06-29 13:48:00,
2013-06-29 08:03:00,66.7,54.0,30.29,NE,53,1.0,-999.0,65,-99.99,,,0.00,weatherlink.com 1.10,2013-06-29 14:03:00,
2013-06-29 08:18:00,66.9,53.0,30.29,NE,46,2.0,-999.0,61,-99.99,,,0.00,weatherlink.com 1.10,2013-06-29 14:18:00,
2013-06-29 08:33:00,68.2,54.0,30.29,NE,38,1.0,-999.0,61,-99.99,,,0.00,weatherlink.com 1.10,2013-06-29 14:33:00,
2013-06-29 08:48:00,69.3,56.0,30.30,NE,37,3.0,-999.0,62,-99.99,,,0.00,weatherlink.com 1.10,2013-06-29 14:48:00,
2013-06-29 09:03:00,69.6,57.0,30.29,ENE,68,5.0,-999.0,64,-99.99,,,0.00,weatherlink.com 1.10,2013-06-29 15:03:00,
2013-06-29 09:18:00,69.9,55.0,30.29,North,5,1.0,-999.0,60,-99.99,,,0.00,weatherlink.com 1.10,2013-06-29 15:18:00,
2013-06-29 09:33:00,69.8,57.0,30.29,NE,43,2.0,-999.0,63,-99.99,,,0.00,weatherlink.com 1.10,2013-06-29 15:33:00,
2013-06-29 09:48:00,70.8,56.0,30.29,ENE,68,5.0,-999.0,60,-99.99,,,0.00,weatherlink.com 1.10,2013-06-29 15:48:00,
2013-06-29 10:03:00,71.5,57.0,30.28,NNW,347,3.0,-999.0,60,-99.99,,,0.00,weatherlink.com 1.10,2013-06-29 16:03:00,
2013-06-29 10:18:00,72.6,56.0,30.28,NE,54,3.0,-999.0,57,-99.99,,,0.00,weatherlink.com 1.10,2013-06-29 16:18:00,
2013-06-29 10:33:00,72.4,57.0,30.28,NNE,14,4.0,-999.0,59,-99.99,,,0.00,weatherlink.com 1.10,2013-06-29 16:33:00,
2013-06-29 10:48:00,72.8,57.0,30.28,East,96,2.0,-999.0,58,-99.99,,,0.00,weatherlink.com 1.10,2013-06-29 16:48:00,
2013-06-29 11:03:00,74.5,57.0,30.28,East,91,1.0,-999.0,55,-99.99,,,0.00,weatherlink.com 1.10,2013-06-29 17:03:00,
2013-06-29 11:18:00,75.2,56.0,30.28,NNE,26,3.0,-999.0,52,-99.99,,,0.00,weatherlink.com 1.10,2013-06-29 17:18:00,
2013-06-29 11:33:00,75.7,57.0,30.27,North,5,3.0,-999.0,53,-99.99,,,0.00,weatherlink.com 1.10,2013-06-29 17:33:00,
2013-06-29 11:48:00,76.5,57.0,30.27,NE,40,2.0,-999.0,51,-99.99,,,0.00,weatherlink.com 1.10,2013-06-29 17:48:00,
2013-06-29 12:03:00,76.9,56.0,30.28,NNW,346,3.0,-999.0,49,-99.99,,,0.00,weatherlink.com 1.10,2013-06-29 18:03:00,
2013-06-29 12:18:00,78.5,57.0,30.27,East,81,6.0,-999.0,48,-99.99,,,0.00,weatherlink.com 1.10,2013-06-29 18:18:00,
2013-06-29 12:33:00,78.9,56.0,30.28,ESE,107,5.0,-999.0,46,-99.99,,,0.00,weatherlink.com 1.10,2013-06-29 18:33:00,
2013-06-29 12:48:00,78.2,56.0,30.27,ENE,60,0.0,-999.0,47,-99.99,,,0.00,weatherlink.com 1.10,2013-06-29 18:48:00,
2013-06-29 13:03:00,78.5,57.0,30.26,NE,49,3.0,-999.0,47,-99.99,,,0.00,weatherlink.com 1.10,2013-06-29 19:03:00,
2013-06-29 13:18:00,77.1,56.0,30.27,NNE,13,0.0,-999.0,48,-99.99,,,0.00,weatherlink.com 1.10,2013-06-29 19:18:00,
2013-06-29 13:33:00,76.6,55.0,30.26,ENE,70,1.0,-999.0,47,-99.99,,,0.00,weatherlink.com 1.10,2013-06-29 19:33:00,
2013-06-29 13:48:00,75.9,55.0,30.26,ENE,59,0.0,-999.0,49,-99.99,,,0.00,weatherlink.com 1.10,2013-06-29 19:48:00,
2013-06-29 14:03:00,75.3,55.0,30.26,NE,54,1.0,-999.0,49,-99.99,,,0.00,weatherlink.com 1.10,2013-06-29 20:03:00,
2013-06-29 14:18:00,74.7,56.0,30.26,SSW,207,5.0,-999.0,53,-99.99,,,0.00,weatherlink.com 1.10,2013-06-29 20:18:00,
2013-06-29 14:33:00,74.5,58.0,30.25,SSW,196,1.0,-999.0,57,-99.99,,,0.00,weatherlink.com 1.10,2013-06-29 20:33:00,
2013-06-29 14:48:00,75.3,57.0,30.25,SSW,195,0.0,-999.0,54,-99.99,,,0.00,weatherlink.com 1.10,2013-06-29 20:48:00,
2013-06-29 15:03:00,76.1,59.0,30.25,SSE,157,3.0,-999.0,56,-99.99,,,0.00,weatherlink.com 1.10,2013-06-29 21:03:00,
2013-06-29 15:18:00,75.8,58.0,30.25,South,182,5.0,-999.0,55,-99.99,,,0.00,weatherlink.com 1.10,2013-06-29 21:18:00,
2013-06-29 15:33:00,76.9,61.0,30.23,SSE,163,6.0,-999.0,58,-99.99,,,0.00,weatherlink.com 1.10,2013-06-29 21:33:00,
2013-06-29 15:48:00,78.2,58.0,30.22,South,173,4.0,-999.0,50,-99.99,,,0.00,weatherlink.com 1.10,2013-06-29 21:48:00,
2013-06-29 16:03:00,78.1,56.0,30.23,ENE,63,2.0,-999.0,47,-99.99,,,0.00,weatherlink.com 1.10,2013-06-29 22:03:00,
2013-06-29 16:18:00,78.4,57.0,30.23,NW,307,0.0,-999.0,48,-99.99,,,0.00,weatherlink.com 1.10,2013-06-29 22:18:00,
2013-06-29 16:33:00,79.5,56.0,30.22,NNE,13,0.0,-999.0,44,-99.99,,,0.00,weatherlink.com 1.10,2013-06-29 22:33:00,
2013-06-29 16:48:00,79.9,53.0,30.22,ENE,78,0.0,-999.0,39,-99.99,,,0.00,weatherlink.com 1.10,2013-06-29 22:48:00,
2013-06-29 17:03:00,79.1,58.0,30.21,South,169,4.0,-999.0,49,-99.99,,,0.00,weatherlink.com 1.10,2013-06-29 23:03:00,
2013-06-29 17:18:00,77.4,58.0,30.21,SSE,167,1.0,-999.0,51,-99.99,,,0.00,weatherlink.com 1.10,2013-06-29 23:18:00,
2013-06-29 17:33:00,78.5,55.0,30.20,South,175,4.0,-999.0,45,-99.99,,,0.00,weatherlink.com 1.10,2013-06-29 23:33:00,
2013-06-29 17:48:00,81.2,54.0,30.19,South,171,4.0,-999.0,39,-99.99,,,0.00,weatherlink.com 1.10,2013-06-29 23:48:00,
2013-06-29 18:03:00,81.9,55.0,30.19,SSE,160,4.0,-999.0,40,-99.99,,,0.00,weatherlink.com 1.10,2013-06-30 00:03:00,
2013-06-29 18:18:00,83.2,56.0,30.19,SE,144,4.0,-999.0,39,-99.99,,,0.00,weatherlink.com 1.10,2013-06-30 00:18:00,
2013-06-29 18:33:00,83.5,55.0,30.19,SE,140,3.0,-999.0,37,-99.99,,,0.00,weatherlink.com 1.10,2013-06-30 00:33:00,
2013-06-29 18:48:00,83.8,53.0,30.20,SSE,159,4.0,-999.0,35,-99.99,,,0.00,weatherlink.com 1.10,2013-06-30 00:48:00,
2013-06-29 19:03:00,82.3,53.0,30.19,SSE,148,2.0,-999.0,37,-99.99,,,0.00,weatherlink.com 1.10,2013-06-30 01:03:00,
2013-06-29 19:18:00,82.0,55.0,30.20,SE,130,3.0,-999.0,39,-99.99,,,0.00,weatherlink.com 1.10,2013-06-30 01:18:00,
2013-06-29 19:33:00,81.4,56.0,30.20,South,184,3.0,-999.0,42,-99.99,,,0.00,weatherlink.com 1.10,2013-06-30 01:33:00,
2013-06-29 19:48:00,80.6,57.0,30.20,SSW,206,0.0,-999.0,45,-99.99,,,0.00,weatherlink.com 1.10,2013-06-30 01:48:00,
2013-06-29 20:03:00,78.6,58.0,30.20,SSW,206,0.0,-999.0,49,-99.99,,,0.00,weatherlink.com 1.10,2013-06-30 02:03:00,
2013-06-29 20:18:00,75.4,57.0,30.20,SW,226,2.0,-999.0,54,-99.99,,,0.00,weatherlink.com 1.10,2013-06-30 02:18:00,
2013-06-29 20:33:00,73.4,56.0,30.20,West,273,2.0,-999.0,55,-99.99,,,0.00,weatherlink.com 1.10,2013-06-30 02:33:00,
2013-06-29 20:48:00,73.0,54.0,30.20,WNW,286,2.0,-999.0,52,-99.99,,,0.00,weatherlink.com 1.10,2013-06-30 02:48:00,
2013-06-29 21:03:00,72.6,53.0,30.21,WSW,254,5.0,-999.0,50,-99.99,,,0.00,weatherlink.com 1.10,2013-06-30 03:03:00,
2013-06-29 21:18:00,72.3,52.0,30.21,West,263,3.0,-999.0,49,-99.99,,,0.00,weatherlink.com 1.10,2013-06-30 03:18:00,
2013-06-29 21:33:00,71.9,52.0,30.22,West,263,3.0,-999.0,49,-99.99,,,0.00,weatherlink.com 1.10,2013-06-30 03:33:00,
2013-06-29 21:48:00,71.6,51.0,30.23,West,279,2.0,-999.0,48,-99.99,,,0.00,weatherlink.com 1.10,2013-06-30 03:48:00,
2013-06-29 22:03:00,71.5,52.0,30.23,West,281,3.0,-999.0,50,-99.99,,,0.00,weatherlink.com 1.10,2013-06-30 04:03:00,
2013-06-29 22:18:00,71.6,51.0,30.23,WSW,258,6.0,-999.0,48,-99.99,,,0.00,weatherlink.com 1.10,2013-06-30 04:18:00,
2013-06-29 22:33:00,71.4,51.0,30.23,West,271,6.0,-999.0,48,-99.99,,,0.00,weatherlink.com 1.10,2013-06-30 04:33:00,
2013-06-29 23:03:00,69.9,54.0,30.25,North,11,4.0,-999.0,58,-99.99,,,0.00,weatherlink.com 1.10,2013-06-30 05:03:00,
2013-06-29 23:18:00,70.3,55.0,30.25,North,351,5.0,-999.0,59,-99.99,,,0.00,weatherlink.com 1.10,2013-06-30 05:18:00,
2013-06-29 23:33:00,70.0,55.0,30.25,North,355,4.0,-999.0,60,-99.99,,,0.00,weatherlink.com 1.10,2013-06-30 05:33:00,
2013-06-29 23:48:00,69.4,55.0,30.26,North,360,3.0,-999.0,60,-99.99,,,0.00,weatherlink.com 1.10,2013-06-30 05:48:00,